OMDM/NHD METAR and TAF weather

Enter ICAO airport designator
Station Type Date Time Source
OMDM METAR 2020/10/06 15:30 UTC NOAA

OMDM 061530Z AUTO 02005KT 7000 NCD 32/21 Q1007 A2976


Station Type Date Time Source
OMDM Decoded METAR 2020/10/06 15:30 UTC NOAA

Station name not available
Oct 06, 2020 - 11:30 AM EDT / 2020.10.06 1530 UTC
Wind: from the NNE (020 degrees) at 6 MPH (5 KT):0
Visibility: 4 mile(s):0
Temperature: 89 F (32 C)
Dew Point: 69 F (21 C)
Relative Humidity: 52%
Pressure (altimeter): 29.76 in. Hg (1007 hPa)
ob: OMDM 061530Z AUTO 02005KT 7000 NCD 32/21 Q1007 A2976
cycle: 15

Station Type Date Time Source
OMDM TAF 2015/04/11 18:25 UTC NOAA

TAF OMDM 111725Z 1118/1224 06005KT 7000 NSC
BECMG 1203/1205 19013KT PROB30
TEMPO 1206/1212 21008G18KT 4000 DU
BECMG 1213/1215 35010KT
BECMG 1218/1220 12009KT

Example: see airport list